Time;durP1;ratioP1;P1;durP2;ratioP2;P2;SDS_P1;SDS_P2;PMS_P1;PMS_P2;Temp;Humidity;BMP_temperature;BMP_pressure;BME280_temperature;BME280_humidity;BME280_pressure;Samples;Min_cycle;Max_cycle;Signal;HPM_P1;HPM_P2
2021/03/15 00:01:10;;;;;;;8.80;5.88;;;5.00;99.90;;;;;;4930222;29;20188;-91
2021/03/15 00:03:36;;;;;;;10.75;6.18;;;5.00;99.90;;;;;;4939806;29;20223;-90
2021/03/15 00:06:03;;;;;;;13.57;6.00;;;5.10;99.90;;;;;;4939831;29;20532;-90
2021/03/15 00:08:30;;;;;;;13.38;7.40;;;5.10;99.90;;;;;;4941961;29;20199;-90
2021/03/15 00:10:57;;;;;;;9.00;5.25;;;5.10;99.90;;;;;;4947844;29;20188;-90
2021/03/15 00:13:25;;;;;;;11.88;6.25;;;5.10;99.90;;;;;;4947869;29;20211;-91
2021/03/15 00:15:54;;;;;;;10.70;5.43;;;5.10;99.90;;;;;;4942101;29;20280;-90
2021/03/15 00:18:21;;;;;;;10.80;6.93;;;5.20;99.90;;;;;;4939583;29;20199;-91
2021/03/15 00:20:47;;;;;;;10.27;6.30;;;5.10;99.90;;;;;;4938651;29;20203;-90
2021/03/15 00:23:14;;;;;;;13.25;7.10;;;5.20;99.90;;;;;;4939190;29;20705;-90
2021/03/15 00:25:41;;;;;;;15.77;6.93;;;5.10;99.90;;;;;;4939428;29;20192;-90
2021/03/15 00:28:08;;;;;;;11.00;6.57;;;5.10;99.90;;;;;;4938800;29;20194;-91
2021/03/15 00:30:36;;;;;;;8.15;6.57;;;5.10;99.90;;;;;;4939021;29;20204;-91
2021/03/15 00:33:03;;;;;;;9.85;7.15;;;5.10;99.90;;;;;;4922056;29;20223;-92
2021/03/15 00:35:30;;;;;;;20.02;8.27;;;5.10;99.90;;;;;;4921672;29;20196;-91
2021/03/15 00:37:56;;;;;;;15.43;8.60;;;5.10;99.90;;;;;;4938661;29;20323;-91
2021/03/15 00:40:24;;;;;;;10.38;6.53;;;5.10;99.90;;;;;;4938225;29;20192;-92
2021/03/15 00:42:52;;;;;;;13.77;7.93;;;5.10;99.90;;;;;;4938600;29;20199;-90
2021/03/15 00:45:21;;;;;;;8.70;6.25;;;5.10;99.90;;;;;;4938695;29;20215;-90
2021/03/15 00:47:49;;;;;;;11.55;6.57;;;5.10;99.90;;;;;;4939003;29;20259;-89
2021/03/15 00:50:24;;;;;;;32.03;9.30;;;5.10;99.90;;;;;;4921013;29;20234;-91
2021/03/15 00:52:50;;;;;;;10.27;7.68;;;5.10;99.90;;;;;;4921853;29;20207;-91
2021/03/15 00:55:17;;;;;;;17.45;8.45;;;5.10;99.90;;;;;;4939057;29;20192;-91
2021/03/15 00:57:45;;;;;;;16.40;9.05;;;5.20;99.90;;;;;;4939685;29;20664;-90
2021/03/15 01:00:14;;;;;;;17.65;9.80;;;5.10;99.90;;;;;;4956084;28;20188;-91
2021/03/15 01:02:40;;;;;;;16.42;11.07;;;5.10;99.90;;;;;;4959640;28;20235;-92
2021/03/15 01:05:10;;;;;;;17.70;10.60;;;5.10;99.90;;;;;;4939695;29;20188;-92
2021/03/15 01:07:36;;;;;;;14.70;10.88;;;5.10;99.90;;;;;;4939593;29;20203;-91
2021/03/15 01:10:07;;;;;;;21.52;11.43;;;5.10;99.90;;;;;;4938977;29;20196;-91
2021/03/15 01:12:33;;;;;;;21.58;11.93;;;5.10;99.90;;;;;;4940736;29;20229;-90
2021/03/15 01:14:59;;;;;;;19.20;13.35;;;5.00;99.90;;;;;;4946730;29;20188;-90
2021/03/15 01:17:26;;;;;;;16.00;13.18;;;5.00;99.90;;;;;;4943866;29;20192;-90
2021/03/15 01:19:52;;;;;;;13.27;11.88;;;5.00;99.90;;;;;;4943184;29;20200;-90
2021/03/15 01:22:20;;;;;;;23.60;14.40;;;4.90;99.90;;;;;;4942714;29;20191;-90
2021/03/15 01:24:46;;;;;;;14.73;10.73;;;4.90;99.90;;;;;;4960056;28;20236;-90
2021/03/15 01:27:12;;;;;;;18.00;11.02;;;4.90;99.90;;;;;;4944507;28;20173;-90
2021/03/15 01:29:39;;;;;;;15.15;9.02;;;4.90;99.90;;;;;;4949428;28;20192;-89
2021/03/15 01:32:06;;;;;;;15.90;8.75;;;4.90;99.90;;;;;;4958821;28;20207;-89
2021/03/15 01:34:33;;;;;;;15.30;8.55;;;4.80;99.90;;;;;;4954431;29;20227;-88
2021/03/15 01:36:59;;;;;;;11.55;8.73;;;4.80;99.90;;;;;;4946203;29;20200;-89
2021/03/15 01:39:26;;;;;;;15.38;7.75;;;4.80;99.90;;;;;;4959669;29;20204;-89
2021/03/15 01:41:53;;;;;;;11.63;7.00;;;4.80;99.90;;;;;;4960001;29;20210;-88
2021/03/15 01:44:21;;;;;;;10.88;6.88;;;4.80;99.90;;;;;;4945782;29;20558;-89
2021/03/15 01:46:47;;;;;;;11.65;8.07;;;4.80;99.90;;;;;;4941898;29;20254;-90
2021/03/15 01:49:14;;;;;;;10.55;7.00;;;4.70;99.90;;;;;;4941562;29;20614;-89
2021/03/15 01:51:41;;;;;;;8.13;6.55;;;4.70;99.90;;;;;;4942096;29;20256;-90
2021/03/15 01:54:08;;;;;;;13.20;8.10;;;4.70;99.90;;;;;;4941531;29;20331;-89
2021/03/15 01:56:36;;;;;;;12.35;7.80;;;4.70;99.90;;;;;;4941247;29;20276;-89
2021/03/15 01:59:03;;;;;;;15.32;7.97;;;4.70;99.90;;;;;;4942071;29;20296;-89
2021/03/15 02:01:30;;;;;;;11.02;7.88;;;4.70;99.90;;;;;;4941429;29;20266;-89
2021/03/15 02:03:56;;;;;;;19.52;9.00;;;4.70;99.90;;;;;;4941636;29;20196;-89
2021/03/15 02:06:23;;;;;;;12.90;9.88;;;4.70;99.90;;;;;;4940313;29;20239;-89
2021/03/15 02:08:49;;;;;;;17.08;9.43;;;4.70;99.90;;;;;;4950681;29;20703;-89
2021/03/15 02:11:21;;;;;;;19.50;9.85;;;4.70;99.90;;;;;;4948647;29;20207;-89
2021/03/15 02:14:07;;;;;;;10.40;8.82;;;4.70;99.90;;;;;;4943010;29;20228;-90
2021/03/15 02:16:42;;;;;;;20.08;10.77;;;4.80;99.90;;;;;;4940935;29;20196;-90
2021/03/15 02:19:55;;;;;;;13.60;10.20;;;4.80;99.90;;;;;;4941238;29;20221;-89
2021/03/15 02:22:51;;;;;;;16.52;10.85;;;4.80;99.90;;;;;;4953619;28;20176;-88
2021/03/15 02:25:52;;;;;;;13.82;10.40;;;4.70;99.90;;;;;;4960921;28;20258;-88
2021/03/15 02:28:59;;;;;;;15.02;11.90;;;4.70;99.90;;;;;;4943655;29;20199;-88
2021/03/15 02:32:11;;;;;;;22.20;13.40;;;4.70;99.90;;;;;;4940465;29;20207;-90
2021/03/15 02:35:05;;;;;;;26.63;14.57;;;4.70;99.90;;;;;;4906547;29;20216;-90
2021/03/15 02:37:34;;;;;;;18.25;11.05;;;4.70;99.90;;;;;;4940171;29;20196;-90
2021/03/15 02:40:08;;;;;;;20.60;12.00;;;4.70;99.90;;;;;;4940420;29;20245;-90
2021/03/15 02:42:36;;;;;;;15.98;11.50;;;4.80;99.90;;;;;;4939801;29;20206;-89
2021/03/15 02:45:05;;;;;;;18.77;12.23;;;4.70;99.90;;;;;;4923924;29;20682;-88
2021/03/15 02:47:34;;;;;;;17.48;11.90;;;4.80;99.90;;;;;;4940747;29;20195;-89
2021/03/15 02:50:06;;;;;;;14.00;10.85;;;4.80;99.90;;;;;;4940063;29;20616;-90
2021/03/15 02:52:34;;;;;;;21.40;12.48;;;4.70;99.90;;;;;;4942222;29;20207;-90
2021/03/15 02:55:02;;;;;;;16.02;12.10;;;4.80;99.90;;;;;;4944870;29;20203;-90
2021/03/15 02:57:30;;;;;;;18.10;11.05;;;4.80;99.90;;;;;;4936992;29;20276;-90
2021/03/15 02:59:58;;;;;;;16.00;12.15;;;4.70;99.90;;;;;;4937138;29;20202;-90
2021/03/15 03:02:26;;;;;;;15.57;11.23;;;4.70;99.90;;;;;;4940077;29;20200;-90
2021/03/15 03:04:53;;;;;;;15.45;12.02;;;4.80;99.90;;;;;;4939830;29;20219;-90
2021/03/15 03:07:22;;;;;;;20.73;12.15;;;4.80;99.90;;;;;;4940740;29;20278;-90
2021/03/15 03:09:50;;;;;;;17.40;11.20;;;4.70;99.90;;;;;;4939909;29;20198;-90
2021/03/15 03:12:18;;;;;;;15.77;12.65;;;4.80;99.90;;;;;;4943384;29;20279;-90
2021/03/15 03:14:47;;;;;;;15.27;12.02;;;4.80;99.90;;;;;;4947551;29;20199;-90
2021/03/15 03:17:14;;;;;;;15.23;11.10;;;4.80;99.90;;;;;;4948752;29;20195;-91
2021/03/15 03:22:18;;;;;;;15.75;11.02;;;4.80;99.90;;;;;;5322295;23;20226;-90
2021/03/15 03:24:46;;;;;;;12.80;11.40;;;4.80;99.90;;;;;;4978956;28;20187;-90
2021/03/15 03:27:15;;;;;;;14.75;10.68;;;4.80;99.90;;;;;;4977435;28;20183;-92
2021/03/15 03:29:42;;;;;;;13.63;9.68;;;4.80;99.90;;;;;;4959017;28;20191;-91
2021/03/15 03:32:09;;;;;;;13.60;10.85;;;4.80;99.90;;;;;;4958903;28;20205;-91
2021/03/15 03:34:38;;;;;;;13.48;10.73;;;4.80;99.90;;;;;;4977003;28;20577;-91
2021/03/15 03:37:06;;;;;;;12.88;10.40;;;4.80;99.90;;;;;;4978403;28;20240;-91
2021/03/15 03:39:33;;;;;;;11.70;10.45;;;4.80;99.90;;;;;;4961493;28;20194;-91
2021/03/15 03:42:00;;;;;;;14.63;10.48;;;4.70;99.90;;;;;;4960770;28;20195;-91
2021/03/15 03:44:27;;;;;;;15.45;10.88;;;4.80;99.90;;;;;;4978519;28;20270;-92
2021/03/15 03:46:54;;;;;;;12.60;9.35;;;4.80;99.90;;;;;;4979051;28;20191;-91
2021/03/15 03:49:20;;;;;;;16.38;12.90;;;4.70;99.90;;;;;;4978658;28;20192;-92
2021/03/15 03:51:52;;;;;;;16.63;13.23;;;4.70;99.90;;;;;;4961110;28;20190;-91
2021/03/15 03:54:23;;;;;;;17.67;12.30;;;4.80;99.90;;;;;;4977776;28;20252;-92
2021/03/15 03:56:53;;;;;;;16.75;12.35;;;4.80;99.90;;;;;;4977832;28;20285;-91
2021/03/15 03:59:24;;;;;;;16.58;11.65;;;4.80;99.90;;;;;;4977575;28;20574;-92
2021/03/15 04:01:56;;;;;;;14.02;12.05;;;4.80;99.90;;;;;;4977402;28;20195;-92
2021/03/15 04:04:27;;;;;;;19.10;12.70;;;4.80;99.90;;;;;;4979245;28;20542;-91
2021/03/15 04:06:54;;;;;;;16.50;13.77;;;4.80;99.90;;;;;;4981016;28;20202;-91
2021/03/15 04:09:27;;;;;;;17.45;13.43;;;4.80;99.90;;;;;;4998605;28;20175;-90
2021/03/15 04:11:57;;;;;;;17.80;13.65;;;4.80;99.90;;;;;;4997170;28;20241;-90
2021/03/15 04:14:27;;;;;;;17.85;14.10;;;4.80;99.90;;;;;;4981150;28;20218;-90
2021/03/15 04:16:55;;;;;;;15.25;12.07;;;4.80;99.90;;;;;;4981469;28;20257;-88
2021/03/15 04:19:25;;;;;;;18.77;13.30;;;4.80;99.90;;;;;;4983684;28;20203;-90
2021/03/15 04:21:57;;;;;;;15.73;12.40;;;4.80;99.90;;;;;;4980685;28;20205;-89
2021/03/15 04:24:24;;;;;;;17.45;13.77;;;4.80;99.90;;;;;;4979591;28;20213;-89
2021/03/15 04:26:52;;;;;;;20.52;13.75;;;4.80;99.90;;;;;;4980296;28;20201;-89
2021/03/15 04:29:20;;;;;;;16.52;13.85;;;4.80;99.90;;;;;;4974985;28;20249;-89
2021/03/15 04:31:48;;;;;;;18.13;13.15;;;4.80;99.90;;;;;;4975250;28;20195;-89
2021/03/15 04:34:15;;;;;;;17.38;14.30;;;4.80;99.90;;;;;;4974892;28;20226;-89
2021/03/15 04:36:43;;;;;;;16.83;13.38;;;4.80;99.90;;;;;;4974965;28;20194;-89
2021/03/15 04:39:10;;;;;;;18.20;13.55;;;4.80;99.90;;;;;;4974629;28;20249;-88
2021/03/15 04:41:37;;;;;;;20.27;15.85;;;4.80;99.90;;;;;;4974790;28;20198;-89
2021/03/15 04:44:05;;;;;;;18.25;13.88;;;4.80;99.90;;;;;;4974281;28;20236;-88
2021/03/15 04:46:31;;;;;;;21.20;16.73;;;4.80;99.90;;;;;;4971676;28;20191;-89
2021/03/15 04:49:03;;;;;;;20.65;16.05;;;4.80;99.90;;;;;;4959767;28;20201;-89
2021/03/15 04:51:30;;;;;;;24.58;15.25;;;4.80;99.90;;;;;;4974633;28;20198;-89
2021/03/15 04:53:56;;;;;;;21.45;14.25;;;4.80;99.90;;;;;;4974281;28;20698;-89
2021/03/15 04:56:24;;;;;;;17.58;14.63;;;4.80;99.90;;;;;;4974469;28;20191;-88
2021/03/15 04:58:53;;;;;;;17.30;13.32;;;4.70;99.90;;;;;;4955636;28;20200;-89
2021/03/15 05:01:20;;;;;;;15.38;13.57;;;4.70;99.90;;;;;;4955327;29;20191;-88
2021/03/15 05:03:51;;;;;;;17.15;13.10;;;4.70;99.90;;;;;;4974373;28;20222;-89
2021/03/15 05:06:19;;;;;;;14.57;12.30;;;4.70;99.90;;;;;;4974832;28;20664;-88
2021/03/15 05:08:49;;;;;;;13.68;12.07;;;4.70;99.90;;;;;;4974504;28;20673;-89
2021/03/15 05:11:17;;;;;;;13.38;9.68;;;4.60;99.90;;;;;;4974477;28;20217;-89
2021/03/15 05:13:44;;;;;;;11.20;7.55;;;4.70;99.90;;;;;;4974322;28;20218;-89
2021/03/15 05:16:11;;;;;;;9.10;7.50;;;4.60;99.90;;;;;;4974599;28;20187;-89
2021/03/15 05:18:38;;;;;;;10.20;7.15;;;4.50;99.90;;;;;;4975839;28;20226;-90
2021/03/15 05:21:07;;;;;;;12.40;8.10;;;4.50;99.90;;;;;;4975174;28;20191;-90
2021/03/15 05:23:34;;;;;;;13.82;8.35;;;4.50;99.90;;;;;;4975578;28;20694;-90
2021/03/15 05:26:04;;;;;;;15.90;10.10;;;4.40;99.90;;;;;;4975997;28;20286;-90
2021/03/15 05:28:33;;;;;;;15.10;9.05;;;4.40;99.90;;;;;;4975246;28;20243;-91
2021/03/15 05:31:03;;;;;;;11.50;8.68;;;4.50;99.90;;;;;;4975312;28;20293;-91
2021/03/15 05:33:34;;;;;;;14.45;10.77;;;4.50;99.90;;;;;;4975916;28;20297;-91
2021/03/15 05:36:02;;;;;;;13.43;10.40;;;4.50;99.90;;;;;;4975533;28;20627;-91
2021/03/15 05:38:28;;;;;;;13.35;10.50;;;4.50;99.90;;;;;;4975433;28;20289;-91
2021/03/15 05:40:57;;;;;;;12.48;7.95;;;4.50;99.90;;;;;;4975340;28;20195;-91
2021/03/15 05:43:43;;;;;;;12.15;8.43;;;4.40;99.90;;;;;;4975697;28;20191;-91
2021/03/15 05:46:48;;;;;;;11.25;8.55;;;4.40;99.90;;;;;;4976048;28;20204;-92
2021/03/15 05:49:43;;;;;;;10.00;8.48;;;4.40;99.90;;;;;;4962867;28;20187;-91
2021/03/15 05:52:13;;;;;;;12.93;9.95;;;4.40;99.90;;;;;;4975319;28;20198;-92
2021/03/15 05:55:18;;;;;;;14.82;10.40;;;4.50;99.90;;;;;;4974930;28;20733;-92
2021/03/15 05:58:16;;;;;;;12.75;9.68;;;4.40;99.90;;;;;;4979521;28;20216;-94
2021/03/15 06:01:09;;;;;;;11.40;8.95;;;4.40;99.90;;;;;;4983013;28;20187;-94
2021/03/15 06:04:03;;;;;;;13.93;10.10;;;4.40;99.90;;;;;;4982241;28;20290;-94
2021/03/15 06:06:37;;;;;;;15.32;11.15;;;4.50;99.90;;;;;;4981857;28;20229;-93
2021/03/15 06:09:06;;;;;;;17.17;11.05;;;4.50;99.90;;;;;;4966831;28;20301;-94
2021/03/15 06:11:39;;;;;;;19.05;12.80;;;4.50;99.90;;;;;;4983218;28;20218;-93
2021/03/15 06:14:08;;;;;;;19.15;13.30;;;4.50;99.90;;;;;;4982204;28;20332;-93
2021/03/15 06:16:36;;;;;;;16.95;14.23;;;4.50;99.90;;;;;;4991996;28;20195;-93
2021/03/15 06:19:03;;;;;;;17.60;13.40;;;4.50;99.90;;;;;;4983205;28;20265;-93
2021/03/15 06:21:31;;;;;;;22.30;15.15;;;4.60;99.90;;;;;;4982999;28;20215;-92
2021/03/15 06:23:59;;;;;;;20.92;15.13;;;4.60;99.90;;;;;;4981649;28;20227;-93
2021/03/15 06:26:27;;;;;;;22.85;14.95;;;4.60;99.90;;;;;;4982666;28;20194;-92
2021/03/15 06:29:01;;;;;;;19.17;13.80;;;4.60;99.90;;;;;;4982603;28;20190;-94
2021/03/15 06:31:49;;;;;;;18.35;13.63;;;4.60;99.90;;;;;;4991917;28;20218;-93
2021/03/15 06:34:23;;;;;;;23.48;16.55;;;4.70;99.90;;;;;;4999585;28;20218;-94
2021/03/15 06:36:52;;;;;;;20.38;14.45;;;4.70;99.90;;;;;;5000758;28;20195;-94
2021/03/15 06:39:20;;;;;;;21.25;16.58;;;4.70;99.90;;;;;;4990943;28;20221;-85
2021/03/15 06:41:49;;;;;;;21.40;15.80;;;4.80;99.90;;;;;;4978297;28;20187;-85
2021/03/15 06:44:17;;;;;;;25.80;18.45;;;4.80;99.90;;;;;;4977029;28;20195;-85
2021/03/15 06:46:46;;;;;;;20.45;15.80;;;4.70;99.90;;;;;;4977205;28;20215;-88
2021/03/15 06:49:12;;;;;;;21.50;16.65;;;4.70;99.90;;;;;;4967079;28;20196;-87
2021/03/15 06:51:38;;;;;;;27.17;17.50;;;4.70;99.90;;;;;;4958714;28;20676;-87
2021/03/15 06:54:23;;;;;;;24.73;18.20;;;4.70;99.90;;;;;;4967260;28;20221;-88
2021/03/15 06:57:11;;;;;;;20.88;17.05;;;4.70;99.90;;;;;;4977914;28;20282;-88
2021/03/15 06:59:46;;;;;;;23.73;16.63;;;4.80;99.90;;;;;;4977720;28;20206;-86
2021/03/15 07:02:19;;;;;;;21.83;17.10;;;4.90;99.90;;;;;;4979478;28;20190;-88
2021/03/15 07:04:46;;;;;;;19.55;15.95;;;4.90;99.90;;;;;;4975542;28;20690;-88
2021/03/15 07:07:12;;;;;;;20.85;15.65;;;4.90;99.90;;;;;;4978135;28;20201;-87
2021/03/15 07:09:38;;;;;;;21.10;16.08;;;5.00;99.90;;;;;;4975901;28;20252;-87
2021/03/15 07:12:05;;;;;;;16.25;12.68;;;5.00;99.90;;;;;;4978381;28;20191;-87
2021/03/15 07:14:32;;;;;;;25.90;15.82;;;5.00;99.90;;;;;;4978276;28;20215;-87
2021/03/15 07:16:59;;;;;;;19.33;14.23;;;5.00;99.90;;;;;;4995476;28;20191;-87
2021/03/15 07:19:27;;;;;;;20.98;14.23;;;5.10;99.90;;;;;;4997473;28;20213;-87
2021/03/15 07:21:53;;;;;;;23.42;13.43;;;5.20;99.90;;;;;;4978074;28;20206;-88
2021/03/15 07:24:20;;;;;;;14.02;11.43;;;5.20;99.90;;;;;;4976668;28;20206;-85
2021/03/15 07:26:46;;;;;;;17.48;10.75;;;5.30;99.90;;;;;;4976084;28;20191;-87
2021/03/15 07:29:14;;;;;;;14.23;9.90;;;5.30;99.90;;;;;;4976171;28;20226;-87
2021/03/15 07:31:44;;;;;;;13.13;9.05;;;5.40;99.90;;;;;;4975914;28;20706;-87
2021/03/15 07:34:15;;;;;;;16.13;9.43;;;5.40;99.90;;;;;;4976202;28;20233;-87
2021/03/15 07:36:51;;;;;;;11.48;8.70;;;5.40;99.90;;;;;;4975763;28;20229;-87
2021/03/15 07:39:18;;;;;;;16.25;9.40;;;5.40;99.90;;;;;;4975821;28;20229;-87
2021/03/15 07:41:46;;;;;;;14.82;9.27;;;5.40;99.90;;;;;;4975526;28;20658;-88
2021/03/15 07:44:24;;;;;;;11.73;8.02;;;5.50;99.90;;;;;;4975768;28;20199;-88
2021/03/15 07:46:52;;;;;;;15.38;7.75;;;5.70;99.90;;;;;;4974742;28;20222;-91
2021/03/15 07:49:26;;;;;;;8.80;7.40;;;5.80;99.90;;;;;;4976869;28;20202;-89
2021/03/15 07:52:00;;;;;;;16.90;7.65;;;5.90;99.90;;;;;;4976496;28;20280;-93
2021/03/15 07:54:31;;;;;;;10.05;7.43;;;6.00;99.90;;;;;;4984773;28;20219;-93
2021/03/15 07:57:24;;;;;;;10.90;7.15;;;6.00;99.90;;;;;;4980729;28;20190;-94
2021/03/15 07:59:54;;;;;;;9.93;8.18;;;6.00;99.90;;;;;;4981405;28;20198;-94
2021/03/15 08:02:22;;;;;;;9.10;5.78;;;6.00;99.90;;;;;;4980505;28;20194;-93
2021/03/15 08:04:49;;;;;;;9.80;6.75;;;6.00;99.90;;;;;;4994792;28;20210;-94
2021/03/15 08:07:18;;;;;;;9.13;6.60;;;6.00;99.90;;;;;;4983067;28;20218;-93
2021/03/15 08:09:46;;;;;;;11.88;7.13;;;6.10;99.90;;;;;;4979735;28;20217;-86
2021/03/15 08:12:13;;;;;;;9.10;6.50;;;6.10;99.90;;;;;;4975517;28;20603;-88
2021/03/15 08:14:44;;;;;;;11.63;7.50;;;6.10;99.90;;;;;;4975596;28;20231;-90
2021/03/15 08:17:17;;;;;;;15.48;9.30;;;6.10;99.90;;;;;;4975819;28;20222;-91
2021/03/15 08:19:46;;;;;;;10.57;7.80;;;5.90;99.90;;;;;;4975416;28;20190;-90
2021/03/15 08:22:14;;;;;;;13.18;8.70;;;5.90;99.90;;;;;;4974754;28;20226;-89
2021/03/15 08:24:43;;;;;;;9.27;7.53;;;5.90;99.90;;;;;;4975621;28;20194;-89
2021/03/15 08:27:10;;;;;;;12.23;7.90;;;5.80;99.90;;;;;;4975242;28;20201;-90
2021/03/15 08:29:40;;;;;;;11.07;7.75;;;5.80;99.90;;;;;;4975536;28;20218;-88
2021/03/15 08:32:08;;;;;;;13.20;6.10;;;5.70;99.90;;;;;;4974905;28;20574;-88
2021/03/15 08:34:38;;;;;;;12.95;6.05;;;5.80;99.90;;;;;;4974989;28;20268;-87
2021/03/15 08:37:05;;;;;;;10.10;5.40;;;5.80;99.90;;;;;;4974765;28;20217;-87
2021/03/15 08:39:38;;;;;;;15.52;5.78;;;5.90;99.90;;;;;;4974890;28;20197;-87
2021/03/15 08:42:25;;;;;;;13.43;4.57;;;5.90;99.90;;;;;;4975120;28;20198;-88
2021/03/15 08:44:51;;;;;;;7.88;3.97;;;6.10;99.90;;;;;;4975187;28;20662;-87
2021/03/15 08:47:50;;;;;;;7.63;4.53;;;6.30;99.90;;;;;;4974957;28;20201;-88
2021/03/15 08:50:57;;;;;;;8.55;6.00;;;6.40;99.90;;;;;;4974733;28;20285;-88
2021/03/15 08:53:54;;;;;;;8.45;4.80;;;6.70;99.90;;;;;;4974107;28;20224;-88
2021/03/15 08:56:38;;;;;;;12.75;5.05;;;6.70;99.90;;;;;;4954225;28;20187;-88
2021/03/15 08:59:07;;;;;;;7.82;4.32;;;6.70;99.90;;;;;;4975321;28;20285;-88
2021/03/15 09:01:51;;;;;;;10.77;4.65;;;6.60;99.90;;;;;;4974442;28;20194;-86
2021/03/15 09:04:40;;;;;;;9.18;5.18;;;6.40;99.90;;;;;;4974753;28;20191;-86
2021/03/15 09:07:28;;;;;;;10.88;5.82;;;6.30;99.90;;;;;;4973079;28;20226;-90
2021/03/15 09:09:55;;;;;;;10.75;5.50;;;6.10;99.90;;;;;;4977561;28;20218;-90
2021/03/15 09:12:22;;;;;;;16.88;8.40;;;6.00;99.90;;;;;;4960061;28;20450;-91
2021/03/15 09:14:57;;;;;;;15.48;6.15;;;5.90;99.90;;;;;;4979588;28;20690;-91
2021/03/15 09:17:35;;;;;;;10.55;5.53;;;6.00;99.90;;;;;;4978091;28;20213;-90
2021/03/15 09:20:18;;;;;;;7.95;4.22;;;6.00;99.90;;;;;;4977591;28;20642;-89
2021/03/15 09:22:45;;;;;;;16.75;6.63;;;6.00;99.90;;;;;;4977805;28;20696;-89
2021/03/15 09:25:22;;;;;;;7.75;4.03;;;6.20;99.90;;;;;;4977577;28;20187;-87
2021/03/15 09:27:53;;;;;;;6.35;3.58;;;6.30;99.90;;;;;;4983540;28;20194;-89
2021/03/15 09:30:29;;;;;;;6.80;3.83;;;6.30;99.90;;;;;;4985253;28;20216;-86
2021/03/15 09:32:57;;;;;;;6.85;4.40;;;6.50;99.90;;;;;;4979680;28;20183;-86
2021/03/15 09:35:29;;;;;;;21.17;6.55;;;6.70;99.90;;;;;;4978683;28;20643;-86
2021/03/15 09:37:59;;;;;;;13.02;5.75;;;6.80;99.90;;;;;;4977946;28;20183;-86
2021/03/15 09:40:28;;;;;;;7.22;3.80;;;6.90;99.90;;;;;;4978751;28;20650;-86
2021/03/15 09:42:55;;;;;;;7.80;3.28;;;6.90;99.90;;;;;;4978717;28;20186;-86
2021/03/15 09:45:32;;;;;;;12.15;3.67;;;6.90;99.90;;;;;;4961425;28;20190;-87
2021/03/15 09:47:58;;;;;;;11.35;5.45;;;6.90;99.90;;;;;;4979544;28;20638;-90
2021/03/15 09:50:27;;;;;;;6.07;3.70;;;7.00;99.90;;;;;;4984964;28;20179;-90
2021/03/15 09:52:53;;;;;;;10.20;4.57;;;7.10;99.90;;;;;;4983218;28;20195;-88
2021/03/15 09:55:19;;;;;;;4.63;1.77;;;7.30;99.90;;;;;;4977156;28;20214;-83
2021/03/15 09:57:46;;;;;;;5.35;2.40;;;7.30;99.90;;;;;;4977334;28;20254;-84
2021/03/15 10:00:15;;;;;;;6.88;2.95;;;7.10;99.90;;;;;;4976868;28;20187;-84
2021/03/15 10:02:44;;;;;;;5.03;2.58;;;7.20;99.90;;;;;;4977559;28;20187;-84
2021/03/15 10:05:19;;;;;;;4.25;2.17;;;7.30;99.90;;;;;;4981727;28;20674;-85
2021/03/15 10:07:47;;;;;;;6.55;2.45;;;7.30;99.90;;;;;;4960441;28;20191;-85
2021/03/15 10:10:15;;;;;;;6.13;3.00;;;7.40;99.90;;;;;;4964990;28;20565;-88
2021/03/15 10:12:42;;;;;;;7.63;2.40;;;7.40;99.90;;;;;;4960800;29;20198;-83
2021/03/15 10:15:10;;;;;;;11.18;2.95;;;7.50;99.90;;;;;;4976264;28;20214;-84
2021/03/15 10:17:37;;;;;;;3.53;1.38;;;7.60;99.90;;;;;;4979591;28;20183;-86
2021/03/15 10:20:08;;;;;;;5.82;2.20;;;7.60;99.90;;;;;;4978123;28;20183;-83
2021/03/15 10:22:35;;;;;;;6.57;2.03;;;7.60;99.90;;;;;;4987755;28;20261;-83
2021/03/15 10:25:03;;;;;;;5.68;2.08;;;7.80;99.90;;;;;;4999310;28;20175;-83
2021/03/15 10:27:30;;;;;;;10.02;2.88;;;7.80;99.90;;;;;;4982962;28;20186;-84
2021/03/15 10:29:58;;;;;;;9.68;1.85;;;7.70;99.90;;;;;;4977440;28;20234;-84
2021/03/15 10:32:26;;;;;;;7.50;2.55;;;7.60;99.90;;;;;;4978001;28;20187;-84
2021/03/15 10:34:57;;;;;;;7.38;2.40;;;7.50;99.90;;;;;;4977312;28;20229;-83
2021/03/15 10:37:27;;;;;;;8.48;2.60;;;7.50;99.90;;;;;;4976128;28;20179;-83
2021/03/15 10:39:54;;;;;;;4.07;2.13;;;7.40;99.90;;;;;;4976273;28;20194;-83
2021/03/15 10:42:22;;;;;;;9.30;2.60;;;7.40;99.90;;;;;;4976852;28;20187;-84
2021/03/15 10:44:49;;;;;;;5.15;1.83;;;7.40;99.90;;;;;;4975476;28;20209;-83
2021/03/15 10:47:26;;;;;;;5.60;1.85;;;7.50;99.90;;;;;;4976650;28;20662;-84
2021/03/15 10:49:53;;;;;;;4.93;1.70;;;7.60;99.90;;;;;;4977595;28;20540;-82
2021/03/15 10:52:31;;;;;;;10.50;3.85;;;7.60;99.90;;;;;;4976648;28;20241;-82
2021/03/15 10:55:09;;;;;;;6.00;2.45;;;7.60;99.90;;;;;;4976461;28;20316;-83
2021/03/15 10:57:36;;;;;;;3.55;2.25;;;7.70;99.90;;;;;;4976901;28;20183;-81
2021/03/15 11:00:21;;;;;;;8.35;4.68;;;7.80;99.90;;;;;;4975675;28;20234;-86
2021/03/15 11:02:47;;;;;;;7.35;2.17;;;8.00;99.90;;;;;;4957485;28;20664;-86
2021/03/15 11:05:15;;;;;;;7.88;2.70;;;8.20;99.90;;;;;;4961247;28;20659;-85
2021/03/15 11:07:42;;;;;;;6.15;2.17;;;8.30;99.90;;;;;;4976638;28;20283;-84
2021/03/15 11:10:13;;;;;;;6.03;2.10;;;8.30;99.90;;;;;;4976542;28;20198;-84
2021/03/15 11:12:42;;;;;;;5.35;2.28;;;8.40;99.90;;;;;;4976447;28;20250;-84
2021/03/15 11:15:21;;;;;;;10.52;2.25;;;8.40;99.90;;;;;;4975579;28;20218;-83
2021/03/15 11:18:00;;;;;;;5.78;1.88;;;8.60;99.90;;;;;;4966989;28;20190;-84
2021/03/15 11:20:50;;;;;;;5.10;1.73;;;8.60;99.90;;;;;;4975962;28;20189;-85
2021/03/15 11:23:30;;;;;;;4.43;2.30;;;8.40;99.90;;;;;;4976484;28;20227;-84
2021/03/15 11:26:02;;;;;;;11.07;2.40;;;8.10;99.90;;;;;;4971578;28;20198;-83
2021/03/15 11:28:33;;;;;;;8.43;2.47;;;8.00;99.90;;;;;;4957274;28;20187;-84
2021/03/15 11:31:00;;;;;;;8.07;2.00;;;7.70;99.90;;;;;;4970659;28;20257;-85
2021/03/15 11:33:28;;;;;;;6.03;2.17;;;7.40;99.90;;;;;;4976571;28;20246;-84
2021/03/15 11:35:55;;;;;;;4.78;2.47;;;7.30;99.90;;;;;;4978821;28;20190;-83
2021/03/15 11:38:23;;;;;;;5.60;2.55;;;7.20;99.90;;;;;;4978406;28;20233;-85
2021/03/15 11:40:51;;;;;;;5.88;2.80;;;7.30;99.90;;;;;;4977032;28;20191;-84
2021/03/15 11:43:17;;;;;;;5.15;2.00;;;7.50;99.90;;;;;;4976472;28;20199;-82
2021/03/15 11:45:44;;;;;;;4.47;1.80;;;7.60;99.90;;;;;;4977293;28;20187;-83
2021/03/15 11:48:10;;;;;;;3.72;1.55;;;7.50;99.90;;;;;;4976950;28;20662;-82
2021/03/15 11:50:38;;;;;;;6.00;3.08;;;7.60;99.90;;;;;;4976241;28;20187;-83
2021/03/15 11:53:06;;;;;;;4.75;2.80;;;8.00;99.90;;;;;;4977626;28;20285;-84
2021/03/15 11:55:33;;;;;;;4.55;1.83;;;8.30;99.90;;;;;;4978047;28;20230;-84
2021/03/15 11:58:04;;;;;;;5.50;1.45;;;8.90;99.90;;;;;;4977098;28;20286;-85
2021/03/15 12:00:30;;;;;;;5.72;1.70;;;9.30;99.90;;;;;;4976018;28;20195;-84
2021/03/15 12:02:57;;;;;;;3.55;1.52;;;10.00;99.90;;;;;;4975677;28;20615;-84
2021/03/15 12:05:23;;;;;;;4.20;1.55;;;10.40;99.90;;;;;;4976359;28;20659;-81
2021/03/15 12:07:50;;;;;;;6.45;1.90;;;9.90;99.90;;;;;;4975939;28;20195;-83
2021/03/15 12:10:17;;;;;;;6.45;2.22;;;10.30;99.90;;;;;;4975055;28;20182;-83
2021/03/15 12:12:43;;;;;;;7.93;1.80;;;10.50;99.90;;;;;;4958526;28;20254;-83
2021/03/15 12:15:13;;;;;;;5.60;2.00;;;10.10;99.90;;;;;;4974659;28;20223;-82
2021/03/15 12:17:40;;;;;;;2.97;1.10;;;9.50;99.90;;;;;;4975613;28;20202;-82
2021/03/15 12:20:08;;;;;;;2.95;2.05;;;8.80;99.90;;;;;;4977032;28;20187;-82
2021/03/15 12:22:37;;;;;;;3.20;1.75;;;8.50;99.90;;;;;;4977399;28;20303;-83
2021/03/15 12:25:05;;;;;;;4.55;1.58;;;8.50;99.90;;;;;;4975844;28;20210;-82
2021/03/15 12:27:31;;;;;;;3.20;1.00;;;8.90;99.90;;;;;;4974734;28;20205;-83
2021/03/15 12:29:57;;;;;;;2.08;1.17;;;9.70;99.90;;;;;;4974822;28;20202;-82
2021/03/15 12:32:24;;;;;;;6.85;1.45;;;10.20;99.90;;;;;;4974520;28;20666;-82
2021/03/15 12:34:51;;;;;;;2.88;0.82;;;10.30;99.90;;;;;;4974476;28;20222;-82
2021/03/15 12:37:17;;;;;;;6.05;1.20;;;10.50;99.90;;;;;;4974107;28;20183;-84
2021/03/15 12:39:44;;;;;;;10.68;2.97;;;11.10;99.90;;;;;;4974395;28;20193;-84
2021/03/15 12:42:10;;;;;;;2.95;1.35;;;11.40;99.90;;;;;;4973971;28;20213;-84
2021/03/15 12:44:36;;;;;;;5.05;1.60;;;11.50;99.90;;;;;;4974387;28;20192;-82
2021/03/15 12:47:03;;;;;;;5.15;1.67;;;11.30;99.90;;;;;;4974058;28;20278;-82
2021/03/15 12:49:30;;;;;;;4.85;1.40;;;10.20;99.90;;;;;;4974692;28;20197;-82
2021/03/15 12:51:56;;;;;;;4.85;1.88;;;9.50;99.90;;;;;;4974408;28;20234;-87
2021/03/15 12:54:23;;;;;;;5.25;1.67;;;8.90;99.90;;;;;;4973496;28;20202;-87
2021/03/15 12:56:49;;;;;;;4.93;2.13;;;8.40;99.90;;;;;;4975370;28;20191;-89
2021/03/15 12:59:15;;;;;;;14.43;3.17;;;7.80;99.90;;;;;;4978023;28;20206;-89
2021/03/15 13:01:42;;;;;;;2.90;2.00;;;7.30;99.90;;;;;;4980724;28;20195;-93
2021/03/15 13:04:09;;;;;;;3.75;2.75;;;7.10;99.90;;;;;;4986039;28;20187;-91
2021/03/15 13:06:36;;;;;;;8.90;2.50;;;7.80;99.90;;;;;;4984141;28;20277;-89